Saint Louis, Texas
Current Conditions -  °F | °C
As of 3:53 PM on Sunday 23 Nov 2014 (Local Time) from KTYR Reporting Station
Clear Clear  
Wind Chill: 75°   Ceiling: Unl
Heat Index: 75°   Visibility: 10mi
Dew Point: 45°   Wind: 15mph
Humidity: 34%   Direction: 240°WSW
Pressure: 29.43"   Gusts: 24mph
Location:  32.3248°N, 95.3025°W
Report Text: KTYR 232153Z 24013G21KT 10SM CLR 24/07 A2943 RMK AO2 SLP959 T02390072
Loading
Personal Weather Stations






























Interactive Weather Map New forecast layout! Learn more

10-Day Weather Forecast

Advertisements
Track Severe Weather on mobile